createdAt,value
2023-05-18T00:02:23.957Z,102033.28
2023-05-18T00:04:52.074Z,102039.41
2023-05-18T00:07:20.089Z,102049.91
2023-05-18T00:09:48.120Z,102054.44
2023-05-18T00:12:17.544Z,102056.28
2023-05-18T00:14:45.546Z,102047.66
2023-05-18T00:17:14.944Z,102055.50
2023-05-18T00:19:42.976Z,102058.19
2023-05-18T00:22:11.186Z,102066.09
2023-05-18T00:24:39.117Z,102080.06
2023-05-18T00:27:07.187Z,102084.38
2023-05-18T00:29:36.560Z,102091.28
2023-05-18T00:32:04.821Z,102087.09
2023-05-18T00:34:33.037Z,102098.41
2023-05-18T00:37:01.394Z,102103.66
2023-05-18T00:39:29.332Z,102108.88
2023-05-18T00:41:57.338Z,102105.50
2023-05-18T00:44:25.361Z,102107.25
2023-05-18T00:46:54.661Z,102109.84
2023-05-18T00:49:22.694Z,102109.03
2023-05-18T00:51:50.914Z,102113.44
2023-05-18T00:54:19.480Z,102116.16
2023-05-18T00:56:48.503Z,102114.59
2023-05-18T00:59:16.561Z,102125.06
2023-05-18T01:01:46.603Z,102124.28
2023-05-18T01:04:15.971Z,102123.50
2023-05-18T01:06:46.492Z,102130.44
2023-05-18T01:09:16.343Z,102127.81
2023-05-18T01:11:54.697Z,102141.63
2023-05-18T01:14:30.668Z,102139.84
2023-05-18T01:17:11.516Z,102142.44
2023-05-18T01:20:08.145Z,102145.09
2023-05-18T01:23:04.779Z,102157.13
2023-05-18T01:25:36.717Z,102158.13
2023-05-18T01:28:10.535Z,102160.72
2023-05-18T01:30:42.401Z,102156.47
2023-05-18T01:33:11.206Z,102160.84
2023-05-18T01:35:47.954Z,102169.53
2023-05-18T01:38:17.586Z,102171.25
2023-05-18T01:40:53.928Z,102176.63
2023-05-18T01:43:27.869Z,102180.09
2023-05-18T01:45:59.294Z,102187.81
2023-05-18T01:48:27.636Z,102185.25
2023-05-18T01:50:58.664Z,102190.44
2023-05-18T01:53:35.382Z,102184.47
2023-05-18T01:56:08.250Z,102185.41
2023-05-18T01:58:40.668Z,102189.72
2023-05-18T02:01:09.523Z,102194.94
2023-05-18T02:03:37.601Z,102195.88
2023-05-18T02:06:05.832Z,102203.59
2023-05-18T02:08:33.768Z,102197.56
2023-05-18T02:11:01.716Z,102210.50
2023-05-18T02:13:29.826Z,102208.81
2023-05-18T02:15:59.184Z,102216.59
2023-05-18T02:18:27.606Z,102220.06
2023-05-18T02:20:59.849Z,102230.44
2023-05-18T02:23:27.994Z,102234.69
2023-05-18T02:25:56.284Z,102233.81
2023-05-18T02:28:24.261Z,102236.41
2023-05-18T02:30:52.252Z,102244.19
2023-05-18T02:33:26.642Z,102243.31
2023-05-18T02:35:55.162Z,102243.34
2023-05-18T02:38:23.084Z,102245.16
2023-05-18T02:40:51.165Z,102247.78
2023-05-18T02:43:19.117Z,102251.16
2023-05-18T02:45:47.069Z,102261.47
2023-05-18T02:48:15.127Z,102255.47
2023-05-18T02:50:46.950Z,102270.09
2023-05-18T02:53:14.901Z,102269.25
2023-05-18T02:55:43.609Z,102272.75
2023-05-18T02:58:13.731Z,102276.19
2023-05-18T03:00:41.547Z,102280.53
2023-05-18T03:03:11.037Z,102283.03
2023-05-18T03:05:39.272Z,102284.66
2023-05-18T03:08:10.326Z,102287.25
2023-05-18T03:10:38.398Z,102294.09
2023-05-18T03:13:06.354Z,102288.91
2023-05-18T03:15:34.422Z,102294.84
2023-05-18T03:18:02.358Z,102295.66
2023-05-18T03:20:31.742Z,102303.41
2023-05-18T03:22:59.748Z,102299.00
2023-05-18T03:25:29.288Z,102305.78
2023-05-18T03:27:59.883Z,102310.84
2023-05-18T03:30:27.795Z,102320.19
2023-05-18T03:32:56.811Z,102318.38
2023-05-18T03:35:24.802Z,102317.38
2023-05-18T03:37:52.809Z,102321.47
2023-05-18T03:40:21.962Z,102324.56
2023-05-18T03:42:51.306Z,102331.06
2023-05-18T03:45:19.673Z,102336.81
2023-05-18T03:47:47.709Z,102337.09
2023-05-18T03:50:15.811Z,102334.91
2023-05-18T03:52:44.619Z,102343.88
2023-05-18T03:55:13.163Z,102345.50
2023-05-18T03:57:41.241Z,102343.50
2023-05-18T04:00:13.136Z,102355.47
2023-05-18T04:02:41.361Z,102349.31
2023-05-18T04:05:10.033Z,102360.31
2023-05-18T04:07:44.165Z,102351.78
2023-05-18T04:10:12.761Z,102350.34
2023-05-18T04:12:40.883Z,102356.22
2023-05-18T04:15:14.466Z,102369.69
2023-05-18T04:17:45.605Z,102375.63
2023-05-18T04:20:14.803Z,102377.31
2023-05-18T04:22:46.342Z,102387.00
2023-05-18T04:25:15.040Z,102386.13
2023-05-18T04:27:45.607Z,102387.25
2023-05-18T04:30:18.877Z,102389.97
2023-05-18T04:32:47.126Z,102393.38
2023-05-18T04:35:15.428Z,102392.97
2023-05-18T04:37:43.786Z,102400.91
2023-05-18T04:40:14.175Z,102400.22
2023-05-18T04:42:45.734Z,102400.22
2023-05-18T04:45:17.659Z,102408.19
2023-05-18T04:47:47.234Z,102415.69
2023-05-18T04:50:19.084Z,102421.59
2023-05-18T04:52:50.047Z,102426.66
2023-05-18T04:55:23.180Z,102419.59
2023-05-18T04:57:53.998Z,102429.56
2023-05-18T05:00:25.296Z,102435.25
2023-05-18T05:02:53.780Z,102433.19
2023-05-18T05:05:22.060Z,102428.63
2023-05-18T05:07:51.367Z,102440.84
2023-05-18T05:10:19.662Z,102446.34
2023-05-18T05:12:49.471Z,102438.63
2023-05-18T05:15:17.914Z,102453.25
2023-05-18T05:17:47.906Z,102453.00
2023-05-18T05:20:16.567Z,102451.69
2023-05-18T05:22:44.748Z,102449.91
2023-05-18T05:25:12.790Z,102453.44
2023-05-18T05:27:40.923Z,102453.13
2023-05-18T05:30:09.988Z,102460.50
2023-05-18T05:32:38.067Z,102467.72
2023-05-18T05:35:08.293Z,102475.03
2023-05-18T05:37:36.542Z,102471.97
2023-05-18T05:40:06.369Z,102476.00
2023-05-18T05:42:34.785Z,102472.28
2023-05-18T05:45:02.803Z,102475.56
2023-05-18T05:47:31.009Z,102487.94
2023-05-18T05:49:58.994Z,102483.25
2023-05-18T05:52:28.918Z,102483.50
2023-05-18T05:54:57.174Z,102479.38
2023-05-18T05:57:25.063Z,102489.38
2023-05-18T05:59:53.089Z,102486.22
2023-05-18T06:02:21.561Z,102488.22
2023-05-18T06:04:49.461Z,102491.19
2023-05-18T06:07:17.656Z,102491.91
2023-05-18T06:09:47.051Z,102487.22
2023-05-18T06:12:15.105Z,102491.69
2023-05-18T06:14:43.097Z,102491.97
2023-05-18T06:17:11.056Z,102498.28
2023-05-18T06:19:38.955Z,102498.41
2023-05-18T06:22:06.966Z,102491.94
2023-05-18T06:24:34.954Z,102492.97
2023-05-18T06:27:05.275Z,102496.78
2023-05-18T06:29:32.998Z,102502.97
2023-05-18T06:32:01.759Z,102505.25
2023-05-18T06:34:29.914Z,102502.38
2023-05-18T06:37:00.558Z,102508.13
2023-05-18T06:39:30.583Z,102507.69
2023-05-18T06:41:58.532Z,102513.53
2023-05-18T06:44:27.904Z,102508.56
2023-05-18T06:46:55.845Z,102523.69
2023-05-18T06:49:23.827Z,102515.38
2023-05-18T06:51:52.145Z,102528.38
2023-05-18T06:54:20.128Z,102529.50
2023-05-18T06:56:48.114Z,102532.34
2023-05-18T06:59:16.064Z,102541.56
2023-05-18T07:01:45.383Z,102546.16
2023-05-18T07:04:13.487Z,102549.28
2023-05-18T07:06:41.595Z,102555.44
2023-05-18T07:09:09.930Z,102551.34
2023-05-18T07:11:37.898Z,102553.66
2023-05-18T07:14:06.111Z,102551.63
2023-05-18T07:16:34.253Z,102555.72
2023-05-18T07:19:05.016Z,102560.47
2023-05-18T07:21:33.094Z,102556.00
2023-05-18T07:24:01.244Z,102561.69
2023-05-18T07:26:29.823Z,102570.75
2023-05-18T07:28:57.742Z,102566.44
2023-05-18T07:31:25.802Z,102570.78
2023-05-18T07:33:53.807Z,102577.69
2023-05-18T07:36:23.073Z,102572.09
2023-05-18T07:38:54.937Z,102573.66
2023-05-18T07:41:23.733Z,102571.09
2023-05-18T07:43:52.153Z,102574.59
2023-05-18T07:46:20.153Z,102576.75
2023-05-18T07:48:48.168Z,102583.28
2023-05-18T07:51:16.389Z,102580.38
2023-05-18T07:53:46.078Z,102576.97
2023-05-18T07:56:14.280Z,102583.84
2023-05-18T07:58:42.242Z,102585.22
2023-05-18T08:01:10.138Z,102589.25
2023-05-18T08:03:38.095Z,102587.78
2023-05-18T08:06:06.384Z,102591.31
2023-05-18T08:08:36.196Z,102591.09
2023-05-18T08:11:06.602Z,102597.75
2023-05-18T08:13:34.427Z,102595.06
2023-05-18T08:16:11.107Z,102590.78
2023-05-18T08:18:40.072Z,102603.53
2023-05-18T08:21:09.591Z,102603.69
2023-05-18T08:23:39.517Z,102597.75
2023-05-18T08:26:10.918Z,102605.53
2023-05-18T08:28:39.987Z,102608.09
2023-05-18T08:31:08.005Z,102609.78
2023-05-18T08:33:35.909Z,102608.16
2023-05-18T08:36:04.031Z,102614.50
2023-05-18T08:38:32.860Z,102613.47
2023-05-18T08:41:07.174Z,102610.31
2023-05-18T08:43:39.935Z,102607.84
2023-05-18T08:46:15.185Z,102608.59
2023-05-18T08:48:46.743Z,102612.66
2023-05-18T08:51:19.787Z,102617.69
2023-05-18T08:53:53.216Z,102615.19
2023-05-18T08:56:25.371Z,102619.97
2023-05-18T08:58:57.607Z,102617.69
2023-05-18T09:01:29.289Z,102610.88
2023-05-18T09:03:58.454Z,102617.47
2023-05-18T09:06:28.397Z,102623.78
2023-05-18T09:08:58.662Z,102618.06
2023-05-18T09:11:28.345Z,102617.00
2023-05-18T09:13:57.667Z,102613.03
2023-05-18T09:16:25.843Z,102617.28
2023-05-18T09:18:53.994Z,102619.28
2023-05-18T09:21:22.063Z,102619.66
2023-05-18T09:23:52.348Z,102628.56
2023-05-18T09:26:21.120Z,102622.66
2023-05-18T09:28:53.640Z,102625.72
2023-05-18T09:31:26.878Z,102628.19
2023-05-18T09:33:55.319Z,102625.03
2023-05-18T09:36:29.216Z,102625.50
2023-05-18T09:38:58.556Z,102612.56
2023-05-18T09:41:27.907Z,102613.81
2023-05-18T09:43:55.994Z,102621.56
2023-05-18T09:46:25.326Z,102616.22
2023-05-18T09:48:56.204Z,102613.06
2023-05-18T09:51:25.654Z,102620.72
2023-05-18T09:53:55.954Z,102626.72
2023-05-18T09:56:24.619Z,102626.00
2023-05-18T09:58:52.654Z,102623.06
2023-05-18T10:01:21.081Z,102625.19
2023-05-18T10:03:50.596Z,102629.53
2023-05-18T10:06:20.347Z,102629.50
2023-05-18T10:08:48.283Z,102626.81
2023-05-18T10:11:19.294Z,102634.00
2023-05-18T10:13:47.290Z,102641.88
2023-05-18T10:16:16.741Z,102641.81
2023-05-18T10:18:45.185Z,102634.94
2023-05-18T10:21:16.444Z,102631.09
2023-05-18T10:23:49.003Z,102632.25
2023-05-18T10:26:21.326Z,102636.41
2023-05-18T10:28:51.289Z,102639.13
2023-05-18T10:31:21.812Z,102631.38
2023-05-18T10:33:51.743Z,102631.50
2023-05-18T10:36:22.484Z,102639.16
2023-05-18T10:38:52.099Z,102631.19
2023-05-18T10:41:22.744Z,102639.75
2023-05-18T10:43:51.434Z,102638.28
2023-05-18T10:46:21.529Z,102639.13
2023-05-18T10:48:52.567Z,102640.91
2023-05-18T10:51:22.717Z,102640.75
2023-05-18T10:53:52.832Z,102640.13
2023-05-18T10:56:22.601Z,102643.31
2023-05-18T10:58:50.858Z,102643.94
2023-05-18T11:01:18.872Z,102641.16
2023-05-18T11:03:46.886Z,102641.69
2023-05-18T11:06:24.513Z,102645.63
2023-05-18T11:08:54.096Z,102651.50
2023-05-18T11:11:26.318Z,102653.34
2023-05-18T11:13:54.445Z,102655.00
2023-05-18T11:16:22.564Z,102654.75
2023-05-18T11:18:52.080Z,102651.50
2023-05-18T11:21:21.762Z,102656.91
2023-05-18T11:24:16.806Z,102656.75
2023-05-18T11:26:46.602Z,102660.84
2023-05-18T11:29:19.484Z,102657.16
2023-05-18T11:31:48.356Z,102653.34
2023-05-18T11:34:38.888Z,102665.88
2023-05-18T11:37:10.089Z,102669.03
2023-05-18T11:39:51.550Z,102670.41
2023-05-18T11:42:24.305Z,102665.91
2023-05-18T11:44:55.684Z,102660.81
2023-05-18T11:47:30.978Z,102667.69
2023-05-18T11:50:00.425Z,102661.34
2023-05-18T11:52:28.726Z,102665.78
2023-05-18T11:54:59.807Z,102670.53
2023-05-18T11:57:39.659Z,102673.44
2023-05-18T12:00:10.491Z,102673.59
2023-05-18T12:02:39.221Z,102670.03
2023-05-18T12:05:10.199Z,102670.13
2023-05-18T12:07:39.264Z,102666.31
2023-05-18T12:10:11.746Z,102673.69
2023-05-18T12:12:40.411Z,102673.97
2023-05-18T12:15:10.018Z,102680.84
2023-05-18T12:17:41.597Z,102683.94
2023-05-18T12:20:11.713Z,102693.75
2023-05-18T12:22:40.269Z,102691.22
2023-05-18T12:25:10.837Z,102696.31
2023-05-18T12:27:40.753Z,102697.50
2023-05-18T12:30:11.984Z,102696.41
2023-05-18T12:32:40.212Z,102710.59
2023-05-18T12:35:09.163Z,102702.19
2023-05-18T12:37:45.245Z,102705.16
2023-05-18T12:40:16.476Z,102706.75
2023-05-18T12:42:53.139Z,102717.72
2023-05-18T12:45:23.784Z,102713.38
2023-05-18T12:47:54.494Z,102708.72
2023-05-18T12:50:23.057Z,102709.75
2023-05-18T12:52:51.497Z,102711.59
2023-05-18T12:55:22.982Z,102721.88
2023-05-18T12:58:01.781Z,102713.31
2023-05-18T13:00:33.707Z,102724.91
2023-05-18T13:03:08.495Z,102723.94
2023-05-18T13:05:37.386Z,102726.75
2023-05-18T13:08:05.779Z,102728.09
2023-05-18T13:10:36.041Z,102724.53
2023-05-18T13:13:04.693Z,102722.41
2023-05-18T13:15:34.928Z,102731.22
2023-05-18T13:18:04.508Z,102732.81
2023-05-18T13:20:37.574Z,102725.06
2023-05-18T13:23:08.225Z,102724.66
2023-05-18T13:25:38.237Z,102722.09
2023-05-18T13:28:07.461Z,102722.28
2023-05-18T13:30:35.576Z,102726.00
2023-05-18T13:33:03.932Z,102725.81
2023-05-18T13:35:32.009Z,102723.38
2023-05-18T13:38:00.164Z,102718.47
2023-05-18T13:40:28.460Z,102716.00
2023-05-18T13:42:57.738Z,102722.94
2023-05-18T13:45:25.696Z,102722.13
2023-05-18T13:47:54.150Z,102717.56
2023-05-18T13:50:23.007Z,102712.75
2023-05-18T13:52:51.310Z,102712.31
2023-05-18T13:55:19.506Z,102713.25
2023-05-18T13:57:47.707Z,102719.13
2023-05-18T14:00:18.028Z,102723.44
2023-05-18T14:02:46.381Z,102720.72
2023-05-18T14:05:15.405Z,102718.78
2023-05-18T14:07:44.092Z,102719.84
2023-05-18T14:10:14.449Z,102720.66
2023-05-18T14:12:43.485Z,102721.88
2023-05-18T14:15:14.032Z,102724.50
2023-05-18T14:17:44.191Z,102711.41
2023-05-18T14:20:13.168Z,102719.38
2023-05-18T14:22:41.547Z,102716.41
2023-05-18T14:25:09.868Z,102732.34
2023-05-18T14:27:37.981Z,102726.59
2023-05-18T14:30:07.259Z,102722.47
2023-05-18T14:32:35.261Z,102720.53
2023-05-18T14:35:04.874Z,102728.84
2023-05-18T14:37:33.984Z,102726.84
2023-05-18T14:40:01.972Z,102728.25
2023-05-18T14:42:29.969Z,102727.56
2023-05-18T14:44:58.060Z,102724.19
2023-05-18T14:47:26.119Z,102730.22
2023-05-18T14:49:54.049Z,102726.38
2023-05-18T14:52:23.343Z,102730.69
2023-05-18T14:54:51.321Z,102731.94
2023-05-18T14:57:19.277Z,102729.28
2023-05-18T14:59:47.296Z,102733.16
2023-05-18T15:02:15.444Z,102728.34
2023-05-18T15:04:43.354Z,102729.75
2023-05-18T15:07:11.904Z,102727.00
2023-05-18T15:09:41.237Z,102737.47
2023-05-18T15:12:09.860Z,102726.84
2023-05-18T15:14:38.010Z,102731.84
2023-05-18T15:17:07.404Z,102728.75
2023-05-18T15:19:35.387Z,102732.28
2023-05-18T15:22:03.454Z,102742.16
2023-05-18T15:24:31.427Z,102741.19
2023-05-18T15:27:00.918Z,102735.38
2023-05-18T15:29:28.863Z,102741.78
2023-05-18T15:31:56.957Z,102744.53
2023-05-18T15:34:28.142Z,102741.41
2023-05-18T15:36:56.120Z,102741.31
2023-05-18T15:39:23.988Z,102742.91
2023-05-18T15:41:52.000Z,102743.31
2023-05-18T15:44:21.367Z,102737.34
2023-05-18T15:46:49.316Z,102747.00
2023-05-18T15:49:18.693Z,102742.34
2023-05-18T15:51:46.583Z,102743.59
2023-05-18T15:54:14.526Z,102739.72
2023-05-18T15:56:42.526Z,102749.53
2023-05-18T15:59:10.800Z,102749.72
2023-05-18T16:01:40.084Z,102742.91
2023-05-18T16:04:08.009Z,102742.44
2023-05-18T16:06:36.924Z,102738.22
2023-05-18T16:09:05.387Z,102740.97
2023-05-18T16:11:35.613Z,102744.25
2023-05-18T16:14:03.827Z,102745.09
2023-05-18T16:16:32.041Z,102741.06
2023-05-18T16:19:02.402Z,102737.47
2023-05-18T16:21:30.415Z,102739.53
2023-05-18T16:23:58.404Z,102745.56
2023-05-18T16:26:26.494Z,102745.56
2023-05-18T16:28:54.509Z,102738.78
2023-05-18T16:31:22.425Z,102739.91
2023-05-18T16:33:50.409Z,102742.72
2023-05-18T16:36:19.814Z,102736.81
2023-05-18T16:38:47.874Z,102742.19
2023-05-18T16:41:16.946Z,102744.91
2023-05-18T16:43:45.012Z,102743.97
2023-05-18T16:46:13.244Z,102746.78
2023-05-18T16:48:41.354Z,102734.63
2023-05-18T16:51:09.757Z,102737.28
2023-05-18T16:53:39.325Z,102740.09
2023-05-18T16:56:07.583Z,102737.56
2023-05-18T16:58:35.772Z,102736.69
2023-05-18T17:01:09.768Z,102740.47
2023-05-18T17:03:44.000Z,102737.13
2023-05-18T17:06:12.180Z,102737.22
2023-05-18T17:08:44.915Z,102733.94
2023-05-18T17:11:12.866Z,102742.84
2023-05-18T17:13:40.824Z,102745.78
2023-05-18T17:16:08.862Z,102739.66
2023-05-18T17:18:36.838Z,102741.53
2023-05-18T17:21:04.946Z,102741.72
2023-05-18T17:23:34.096Z,102743.59
2023-05-18T17:26:06.712Z,102745.41
2023-05-18T17:28:34.982Z,102746.31
2023-05-18T17:31:02.964Z,102750.09
2023-05-18T17:33:30.982Z,102754.59
2023-05-18T17:35:59.150Z,102759.22
2023-05-18T17:38:27.355Z,102754.22
2023-05-18T17:40:55.460Z,102763.22
2023-05-18T17:43:24.814Z,102765.94
2023-05-18T17:45:52.854Z,102760.88
2023-05-18T17:48:20.729Z,102760.47
2023-05-18T17:50:48.703Z,102767.78
2023-05-18T17:53:17.097Z,102770.78
2023-05-18T17:55:45.168Z,102776.03
2023-05-18T17:58:13.204Z,102774.72
2023-05-18T18:00:42.751Z,102774.09
2023-05-18T18:03:11.684Z,102773.63
2023-05-18T18:05:39.687Z,102785.06
2023-05-18T18:08:07.709Z,102786.28
2023-05-18T18:10:35.753Z,102781.44
2023-05-18T18:13:03.745Z,102785.28
2023-05-18T18:15:31.888Z,102791.75
2023-05-18T18:18:01.312Z,102791.22
2023-05-18T18:20:31.455Z,102789.75
2023-05-18T18:22:59.702Z,102787.44
2023-05-18T18:25:30.081Z,102792.19
2023-05-18T18:27:58.301Z,102795.88
2023-05-18T18:30:26.389Z,102795.78
2023-05-18T18:32:54.423Z,102794.34
2023-05-18T18:35:23.777Z,102788.28
2023-05-18T18:37:51.692Z,102793.97
2023-05-18T18:40:19.941Z,102795.47
2023-05-18T18:42:48.427Z,102803.59
2023-05-18T18:45:16.537Z,102805.72
2023-05-18T18:47:44.520Z,102799.13
2023-05-18T18:50:12.614Z,102803.00
2023-05-18T18:52:41.982Z,102805.00
2023-05-18T18:55:10.124Z,102804.47
2023-05-18T18:57:38.064Z,102811.19
2023-05-18T19:00:11.095Z,102809.09
2023-05-18T19:02:39.124Z,102813.69
2023-05-18T19:05:09.025Z,102815.97
2023-05-18T19:07:37.691Z,102819.06
2023-05-18T19:10:09.159Z,102825.47
2023-05-18T19:12:37.023Z,102820.50
2023-05-18T19:15:05.720Z,102817.25
2023-05-18T19:17:33.911Z,102822.94
2023-05-18T19:20:02.106Z,102824.19
2023-05-18T19:22:30.326Z,102816.81
2023-05-18T19:24:58.218Z,102819.50
2023-05-18T19:27:27.682Z,102824.22
2023-05-18T19:29:56.035Z,102829.75
2023-05-18T19:32:24.395Z,102830.03
2023-05-18T19:34:52.537Z,102829.44
2023-05-18T19:37:20.844Z,102819.94
2023-05-18T19:39:49.012Z,102824.38
2023-05-18T19:42:17.345Z,102837.66
2023-05-18T19:44:46.956Z,102839.84
2023-05-18T19:47:16.614Z,102837.34
2023-05-18T19:49:45.088Z,102844.69
2023-05-18T19:52:13.165Z,102845.84
2023-05-18T19:54:41.219Z,102847.91
2023-05-18T19:57:09.227Z,102846.59
2023-05-18T19:59:37.160Z,102853.78
2023-05-18T20:02:06.942Z,102859.81
2023-05-18T20:04:34.977Z,102860.22
2023-05-18T20:07:03.004Z,102857.09
2023-05-18T20:09:31.193Z,102853.03
2023-05-18T20:11:59.621Z,102860.09
2023-05-18T20:14:28.686Z,102861.09
2023-05-18T20:17:00.566Z,102862.25
2023-05-18T20:19:30.599Z,102860.63
2023-05-18T20:21:58.811Z,102866.19
2023-05-18T20:24:26.877Z,102860.25
2023-05-18T20:26:54.825Z,102867.50
2023-05-18T20:29:22.749Z,102870.25
2023-05-18T20:31:50.948Z,102865.06
2023-05-18T20:34:18.934Z,102876.69
2023-05-18T20:36:48.218Z,102876.69
2023-05-18T20:39:16.274Z,102880.31
2023-05-18T20:41:44.250Z,102882.81
2023-05-18T20:44:17.561Z,102881.13
2023-05-18T20:46:45.672Z,102884.81
2023-05-18T20:49:13.662Z,102885.78
2023-05-18T20:51:41.648Z,102886.72
2023-05-18T20:54:11.123Z,102886.06
2023-05-18T20:56:39.054Z,102891.44
2023-05-18T20:59:07.057Z,102897.75
2023-05-18T21:01:39.238Z,102901.09
2023-05-18T21:04:09.689Z,102896.78
2023-05-18T21:06:41.095Z,102896.91
2023-05-18T21:09:10.743Z,102898.94
2023-05-18T21:11:38.697Z,102906.19
2023-05-18T21:14:06.804Z,102903.56
2023-05-18T21:16:35.188Z,102910.78
2023-05-18T21:19:03.294Z,102905.22
2023-05-18T21:21:31.784Z,102915.19
2023-05-18T21:23:59.804Z,102915.59
2023-05-18T21:26:29.125Z,102918.41
2023-05-18T21:28:57.616Z,102924.88
2023-05-18T21:31:25.663Z,102928.00
2023-05-18T21:33:53.668Z,102922.94
2023-05-18T21:36:33.594Z,102928.22
2023-05-18T21:39:01.825Z,102928.31
2023-05-18T21:41:31.527Z,102923.13
2023-05-18T21:43:59.437Z,102929.28
2023-05-18T21:46:28.224Z,102932.72
2023-05-18T21:48:56.396Z,102937.91
2023-05-18T21:51:25.303Z,102930.94
2023-05-18T21:53:53.288Z,102939.34
2023-05-18T21:56:21.392Z,102941.75
2023-05-18T21:58:51.405Z,102937.50
2023-05-18T22:01:21.441Z,102943.09
2023-05-18T22:03:49.574Z,102945.69
2023-05-18T22:06:17.921Z,102944.06
2023-05-18T22:08:46.199Z,102937.75
2023-05-18T22:11:14.747Z,102942.16
2023-05-18T22:13:42.765Z,102951.75
2023-05-18T22:16:12.102Z,102950.16
2023-05-18T22:18:40.115Z,102941.59
2023-05-18T22:21:08.173Z,102946.97
2023-05-18T22:23:36.153Z,102948.81
2023-05-18T22:26:04.128Z,102947.88
2023-05-18T22:28:32.137Z,102945.31
2023-05-18T22:31:00.171Z,102957.56
2023-05-18T22:33:29.666Z,102959.31
2023-05-18T22:35:57.678Z,102955.91
2023-05-18T22:38:25.694Z,102966.53
2023-05-18T22:40:54.132Z,102960.41
2023-05-18T22:43:22.190Z,102962.34
2023-05-18T22:45:50.728Z,102963.03
2023-05-18T22:48:18.733Z,102958.72
2023-05-18T22:50:48.360Z,102971.84
2023-05-18T22:53:16.336Z,102978.06
2023-05-18T22:55:44.426Z,102972.75
2023-05-18T22:58:12.413Z,102971.94
2023-05-18T23:00:40.395Z,102972.81
2023-05-18T23:03:08.380Z,102979.00
2023-05-18T23:05:37.005Z,102979.97
2023-05-18T23:08:06.548Z,102977.34
2023-05-18T23:10:36.865Z,102979.25
2023-05-18T23:13:04.964Z,102972.25
2023-05-18T23:15:33.213Z,102985.50
2023-05-18T23:18:01.214Z,102978.72
2023-05-18T23:20:29.379Z,102983.28
2023-05-18T23:22:57.554Z,102987.81
2023-05-18T23:25:27.104Z,102982.78
2023-05-18T23:27:55.121Z,102981.22
2023-05-18T23:30:23.161Z,102987.44
2023-05-18T23:32:53.028Z,102990.19
2023-05-18T23:35:21.849Z,102989.50
2023-05-18T23:37:51.900Z,102990.47
2023-05-18T23:40:20.384Z,102991.44
2023-05-18T23:42:50.405Z,102997.66
2023-05-18T23:45:19.036Z,102994.16
2023-05-18T23:47:47.502Z,102999.69
2023-05-18T23:50:16.349Z,103001.66
2023-05-18T23:52:47.427Z,102997.41
2023-05-18T23:55:15.986Z,103006.34
2023-05-18T23:57:44.341Z,103004.03
